sensor_id;sensor_type;location;lat;lon;timestamp;temperature;humidity
16863;DHT22;52193;48.216;-1.698;2023-02-03T00:00:06;13.70;99.80
16863;DHT22;52193;48.216;-1.698;2023-02-03T00:02:33;13.70;99.80
16863;DHT22;52193;48.216;-1.698;2023-02-03T00:05:00;13.70;99.80
16863;DHT22;52193;48.216;-1.698;2023-02-03T00:07:27;13.70;99.90
16863;DHT22;52193;48.216;-1.698;2023-02-03T00:09:55;13.80;99.90
16863;DHT22;52193;48.216;-1.698;2023-02-03T00:12:22;13.70;99.80
16863;DHT22;52193;48.216;-1.698;2023-02-03T00:14:50;13.70;99.90
16863;DHT22;52193;48.216;-1.698;2023-02-03T00:17:17;13.60;99.90
16863;DHT22;52193;48.216;-1.698;2023-02-03T00:19:44;13.60;99.90
16863;DHT22;52193;48.216;-1.698;2023-02-03T00:22:11;13.60;99.90
16863;DHT22;52193;48.216;-1.698;2023-02-03T00:24:38;13.70;99.90
16863;DHT22;52193;48.216;-1.698;2023-02-03T00:27:05;13.70;99.90
16863;DHT22;52193;48.216;-1.698;2023-02-03T00:29:32;13.70;99.90
16863;DHT22;52193;48.216;-1.698;2023-02-03T00:32:00;13.70;99.90
16863;DHT22;52193;48.216;-1.698;2023-02-03T00:34:28;13.80;99.90
16863;DHT22;52193;48.216;-1.698;2023-02-03T00:36:56;13.80;99.90
16863;DHT22;52193;48.216;-1.698;2023-02-03T00:39:23;13.70;99.90
16863;DHT22;52193;48.216;-1.698;2023-02-03T00:41:49;13.80;99.90
16863;DHT22;52193;48.216;-1.698;2023-02-03T00:44:16;13.80;99.90
16863;DHT22;52193;48.216;-1.698;2023-02-03T00:46:43;13.80;99.90
16863;DHT22;52193;48.216;-1.698;2023-02-03T00:49:12;13.80;99.90
16863;DHT22;52193;48.216;-1.698;2023-02-03T00:51:38;13.80;99.90
16863;DHT22;52193;48.216;-1.698;2023-02-03T00:54:05;13.80;99.90
16863;DHT22;52193;48.216;-1.698;2023-02-03T00:56:32;13.80;99.90
16863;DHT22;52193;48.216;-1.698;2023-02-03T00:58:59;13.90;99.90
16863;DHT22;52193;48.216;-1.698;2023-02-03T01:01:26;13.80;99.90
16863;DHT22;52193;48.216;-1.698;2023-02-03T01:03:54;13.90;99.90
16863;DHT22;52193;48.216;-1.698;2023-02-03T01:06:23;13.90;99.90
16863;DHT22;52193;48.216;-1.698;2023-02-03T01:08:50;13.90;99.90
16863;DHT22;52193;48.216;-1.698;2023-02-03T01:11:20;13.80;99.90
16863;DHT22;52193;48.216;-1.698;2023-02-03T01:13:48;13.90;99.90
16863;DHT22;52193;48.216;-1.698;2023-02-03T01:16:16;13.90;99.90
16863;DHT22;52193;48.216;-1.698;2023-02-03T01:18:44;13.90;99.90
16863;DHT22;52193;48.216;-1.698;2023-02-03T01:21:13;13.90;99.90
16863;DHT22;52193;48.216;-1.698;2023-02-03T01:23:42;13.90;99.90
16863;DHT22;52193;48.216;-1.698;2023-02-03T01:26:11;13.90;99.90
16863;DHT22;52193;48.216;-1.698;2023-02-03T01:28:38;13.90;99.90
16863;DHT22;52193;48.216;-1.698;2023-02-03T01:31:10;13.90;99.90
16863;DHT22;52193;48.216;-1.698;2023-02-03T01:33:37;13.90;99.90
16863;DHT22;52193;48.216;-1.698;2023-02-03T01:36:06;13.90;99.90
16863;DHT22;52193;48.216;-1.698;2023-02-03T01:38:33;13.90;99.90
16863;DHT22;52193;48.216;-1.698;2023-02-03T01:41:02;13.90;99.90
16863;DHT22;52193;48.216;-1.698;2023-02-03T01:43:30;13.90;99.90
16863;DHT22;52193;48.216;-1.698;2023-02-03T01:45:58;13.90;99.90
16863;DHT22;52193;48.216;-1.698;2023-02-03T01:48:26;13.90;99.90
16863;DHT22;52193;48.216;-1.698;2023-02-03T01:50:54;13.90;99.90
16863;DHT22;52193;48.216;-1.698;2023-02-03T01:53:21;13.90;99.90
16863;DHT22;52193;48.216;-1.698;2023-02-03T01:55:49;13.90;99.90
16863;DHT22;52193;48.216;-1.698;2023-02-03T01:58:21;13.90;99.90
16863;DHT22;52193;48.216;-1.698;2023-02-03T02:00:49;13.90;99.90
16863;DHT22;52193;48.216;-1.698;2023-02-03T02:03:19;13.90;99.90
16863;DHT22;52193;48.216;-1.698;2023-02-03T02:05:51;13.90;99.90
16863;DHT22;52193;48.216;-1.698;2023-02-03T02:08:20;13.90;99.90
16863;DHT22;52193;48.216;-1.698;2023-02-03T02:10:48;13.90;99.90
16863;DHT22;52193;48.216;-1.698;2023-02-03T02:13:18;13.90;99.90
16863;DHT22;52193;48.216;-1.698;2023-02-03T02:15:50;13.90;99.90
16863;DHT22;52193;48.216;-1.698;2023-02-03T02:18:27;13.80;99.90
16863;DHT22;52193;48.216;-1.698;2023-02-03T02:21:38;13.80;99.90
16863;DHT22;52193;48.216;-1.698;2023-02-03T02:24:23;13.80;99.90
16863;DHT22;52193;48.216;-1.698;2023-02-03T02:26:59;13.90;99.90
16863;DHT22;52193;48.216;-1.698;2023-02-03T02:32:43;13.80;99.90
16863;DHT22;52193;48.216;-1.698;2023-02-03T02:35:18;13.80;99.90
16863;DHT22;52193;48.216;-1.698;2023-02-03T02:37:52;13.80;99.90
16863;DHT22;52193;48.216;-1.698;2023-02-03T02:40:24;13.80;99.90
16863;DHT22;52193;48.216;-1.698;2023-02-03T02:43:01;13.70;99.90
16863;DHT22;52193;48.216;-1.698;2023-02-03T02:45:39;13.70;99.90
16863;DHT22;52193;48.216;-1.698;2023-02-03T02:48:13;13.70;99.90
16863;DHT22;52193;48.216;-1.698;2023-02-03T02:50:44;13.70;99.90
16863;DHT22;52193;48.216;-1.698;2023-02-03T02:53:13;13.80;99.90
16863;DHT22;52193;48.216;-1.698;2023-02-03T02:55:42;13.80;99.90
16863;DHT22;52193;48.216;-1.698;2023-02-03T02:58:13;13.80;99.90
16863;DHT22;52193;48.216;-1.698;2023-02-03T03:00:42;13.90;99.90
16863;DHT22;52193;48.216;-1.698;2023-02-03T03:03:13;13.70;99.90
16863;DHT22;52193;48.216;-1.698;2023-02-03T03:05:42;13.70;99.90
16863;DHT22;52193;48.216;-1.698;2023-02-03T03:08:11;13.70;99.90
16863;DHT22;52193;48.216;-1.698;2023-02-03T03:10:40;13.70;99.90
16863;DHT22;52193;48.216;-1.698;2023-02-03T03:13:10;13.70;99.90
16863;DHT22;52193;48.216;-1.698;2023-02-03T03:15:40;13.70;99.90
16863;DHT22;52193;48.216;-1.698;2023-02-03T03:18:13;13.70;99.90
16863;DHT22;52193;48.216;-1.698;2023-02-03T03:20:42;13.70;99.90
16863;DHT22;52193;48.216;-1.698;2023-02-03T03:23:14;13.70;99.90
16863;DHT22;52193;48.216;-1.698;2023-02-03T03:25:48;13.60;99.90
16863;DHT22;52193;48.216;-1.698;2023-02-03T03:28:23;13.70;99.90
16863;DHT22;52193;48.216;-1.698;2023-02-03T03:30:52;13.60;99.90
16863;DHT22;52193;48.216;-1.698;2023-02-03T03:33:21;13.70;99.90
16863;DHT22;52193;48.216;-1.698;2023-02-03T03:35:52;13.70;99.90
16863;DHT22;52193;48.216;-1.698;2023-02-03T03:38:24;13.70;99.90
16863;DHT22;52193;48.216;-1.698;2023-02-03T03:41:02;13.80;99.90
16863;DHT22;52193;48.216;-1.698;2023-02-03T03:43:33;13.70;99.90
16863;DHT22;52193;48.216;-1.698;2023-02-03T03:46:05;13.70;99.90
16863;DHT22;52193;48.216;-1.698;2023-02-03T03:48:39;13.70;99.90
16863;DHT22;52193;48.216;-1.698;2023-02-03T03:51:17;13.80;99.90
16863;DHT22;52193;48.216;-1.698;2023-02-03T03:53:47;13.70;99.90
16863;DHT22;52193;48.216;-1.698;2023-02-03T03:56:21;13.70;99.90
16863;DHT22;52193;48.216;-1.698;2023-02-03T03:58:51;13.70;99.90
16863;DHT22;52193;48.216;-1.698;2023-02-03T04:01:20;13.60;99.90
16863;DHT22;52193;48.216;-1.698;2023-02-03T04:03:53;13.60;99.90
16863;DHT22;52193;48.216;-1.698;2023-02-03T04:06:21;13.60;99.90
16863;DHT22;52193;48.216;-1.698;2023-02-03T04:08:48;13.70;99.90
16863;DHT22;52193;48.216;-1.698;2023-02-03T04:11:15;13.80;99.90
16863;DHT22;52193;48.216;-1.698;2023-02-03T04:14:02;13.80;99.90
16863;DHT22;52193;48.216;-1.698;2023-02-03T04:16:28;13.80;99.90
16863;DHT22;52193;48.216;-1.698;2023-02-03T04:18:57;13.80;99.90
16863;DHT22;52193;48.216;-1.698;2023-02-03T04:21:24;13.80;99.90
16863;DHT22;52193;48.216;-1.698;2023-02-03T04:23:50;13.80;99.90
16863;DHT22;52193;48.216;-1.698;2023-02-03T04:26:17;13.80;99.90
16863;DHT22;52193;48.216;-1.698;2023-02-03T04:28:44;13.80;99.90
16863;DHT22;52193;48.216;-1.698;2023-02-03T04:31:11;13.90;99.90
16863;DHT22;52193;48.216;-1.698;2023-02-03T04:33:38;13.80;99.90
16863;DHT22;52193;48.216;-1.698;2023-02-03T04:36:07;13.90;99.90
16863;DHT22;52193;48.216;-1.698;2023-02-03T04:38:35;13.80;99.90
16863;DHT22;52193;48.216;-1.698;2023-02-03T04:41:02;13.80;99.90
16863;DHT22;52193;48.216;-1.698;2023-02-03T04:43:29;13.80;99.90
16863;DHT22;52193;48.216;-1.698;2023-02-03T04:45:58;13.80;99.90
16863;DHT22;52193;48.216;-1.698;2023-02-03T04:48:25;13.90;99.90
16863;DHT22;52193;48.216;-1.698;2023-02-03T04:50:52;13.80;99.90
16863;DHT22;52193;48.216;-1.698;2023-02-03T04:53:20;13.90;99.90
16863;DHT22;52193;48.216;-1.698;2023-02-03T04:55:47;13.80;99.90
16863;DHT22;52193;48.216;-1.698;2023-02-03T04:58:14;13.70;99.90
16863;DHT22;52193;48.216;-1.698;2023-02-03T05:00:41;13.70;99.90
16863;DHT22;52193;48.216;-1.698;2023-02-03T05:03:08;13.70;99.90
16863;DHT22;52193;48.216;-1.698;2023-02-03T05:05:35;13.70;99.90
16863;DHT22;52193;48.216;-1.698;2023-02-03T05:08:02;13.80;99.90
16863;DHT22;52193;48.216;-1.698;2023-02-03T05:10:30;13.80;99.90
16863;DHT22;52193;48.216;-1.698;2023-02-03T05:12:57;13.80;99.90
16863;DHT22;52193;48.216;-1.698;2023-02-03T05:15:24;13.80;99.90
16863;DHT22;52193;48.216;-1.698;2023-02-03T05:17:51;13.80;99.90
16863;DHT22;52193;48.216;-1.698;2023-02-03T05:20:18;13.80;99.90
16863;DHT22;52193;48.216;-1.698;2023-02-03T05:22:45;13.80;99.90
16863;DHT22;52193;48.216;-1.698;2023-02-03T05:25:12;13.80;99.90
16863;DHT22;52193;48.216;-1.698;2023-02-03T05:27:41;13.80;99.90
16863;DHT22;52193;48.216;-1.698;2023-02-03T05:30:09;13.80;99.90
16863;DHT22;52193;48.216;-1.698;2023-02-03T05:32:36;13.80;99.90
16863;DHT22;52193;48.216;-1.698;2023-02-03T05:35:03;13.80;99.90
16863;DHT22;52193;48.216;-1.698;2023-02-03T05:37:30;13.80;99.90
16863;DHT22;52193;48.216;-1.698;2023-02-03T05:39:57;13.80;99.90
16863;DHT22;52193;48.216;-1.698;2023-02-03T05:42:49;13.80;99.90
16863;DHT22;52193;48.216;-1.698;2023-02-03T05:45:15;13.80;99.90
16863;DHT22;52193;48.216;-1.698;2023-02-03T05:47:42;13.80;99.90
16863;DHT22;52193;48.216;-1.698;2023-02-03T05:50:09;13.70;99.90
16863;DHT22;52193;48.216;-1.698;2023-02-03T05:52:36;13.70;99.90
16863;DHT22;52193;48.216;-1.698;2023-02-03T05:55:03;13.70;99.90
16863;DHT22;52193;48.216;-1.698;2023-02-03T05:57:30;13.70;99.90
16863;DHT22;52193;48.216;-1.698;2023-02-03T05:59:59;13.70;99.90
16863;DHT22;52193;48.216;-1.698;2023-02-03T06:02:25;13.70;99.90
16863;DHT22;52193;48.216;-1.698;2023-02-03T06:04:52;13.70;99.90
16863;DHT22;52193;48.216;-1.698;2023-02-03T06:07:19;13.70;99.90
16863;DHT22;52193;48.216;-1.698;2023-02-03T06:09:46;13.70;99.90
16863;DHT22;52193;48.216;-1.698;2023-02-03T06:12:14;13.80;99.90
16863;DHT22;52193;48.216;-1.698;2023-02-03T06:14:41;13.80;99.90
16863;DHT22;52193;48.216;-1.698;2023-02-03T06:17:09;13.80;99.90
16863;DHT22;52193;48.216;-1.698;2023-02-03T06:19:36;13.80;99.90
16863;DHT22;52193;48.216;-1.698;2023-02-03T06:22:03;13.80;99.90
16863;DHT22;52193;48.216;-1.698;2023-02-03T06:24:30;13.80;99.90
16863;DHT22;52193;48.216;-1.698;2023-02-03T06:26:57;13.80;99.90
16863;DHT22;52193;48.216;-1.698;2023-02-03T06:29:23;13.80;99.90
16863;DHT22;52193;48.216;-1.698;2023-02-03T06:31:50;13.80;99.90
16863;DHT22;52193;48.216;-1.698;2023-02-03T06:34:19;13.80;99.90
16863;DHT22;52193;48.216;-1.698;2023-02-03T06:36:46;13.70;99.90
16863;DHT22;52193;48.216;-1.698;2023-02-03T06:39:13;13.70;99.90
16863;DHT22;52193;48.216;-1.698;2023-02-03T06:41:40;13.70;99.90
16863;DHT22;52193;48.216;-1.698;2023-02-03T06:44:07;13.70;99.90
16863;DHT22;52193;48.216;-1.698;2023-02-03T06:46:34;13.70;99.90
16863;DHT22;52193;48.216;-1.698;2023-02-03T06:49:01;13.70;99.90
16863;DHT22;52193;48.216;-1.698;2023-02-03T06:51:29;13.60;99.90
16863;DHT22;52193;48.216;-1.698;2023-02-03T06:53:56;13.60;99.90
16863;DHT22;52193;48.216;-1.698;2023-02-03T06:56:24;13.60;99.90
16863;DHT22;52193;48.216;-1.698;2023-02-03T06:58:51;13.60;99.90
16863;DHT22;52193;48.216;-1.698;2023-02-03T07:01:18;13.50;99.90
16863;DHT22;52193;48.216;-1.698;2023-02-03T07:03:45;13.60;99.90
16863;DHT22;52193;48.216;-1.698;2023-02-03T07:06:12;13.50;99.90
16863;DHT22;52193;48.216;-1.698;2023-02-03T07:08:40;13.50;99.90
16863;DHT22;52193;48.216;-1.698;2023-02-03T07:11:07;13.50;99.90
16863;DHT22;52193;48.216;-1.698;2023-02-03T07:13:34;13.40;99.90
16863;DHT22;52193;48.216;-1.698;2023-02-03T07:16:01;13.40;99.90
16863;DHT22;52193;48.216;-1.698;2023-02-03T07:18:28;13.40;99.90
16863;DHT22;52193;48.216;-1.698;2023-02-03T07:20:56;13.40;99.90
16863;DHT22;52193;48.216;-1.698;2023-02-03T07:23:23;13.40;99.90
16863;DHT22;52193;48.216;-1.698;2023-02-03T07:25:51;13.40;99.90
16863;DHT22;52193;48.216;-1.698;2023-02-03T07:28:18;13.30;99.90
16863;DHT22;52193;48.216;-1.698;2023-02-03T07:30:47;13.40;99.90
16863;DHT22;52193;48.216;-1.698;2023-02-03T07:33:14;13.30;99.90
16863;DHT22;52193;48.216;-1.698;2023-02-03T07:35:41;13.30;99.90
16863;DHT22;52193;48.216;-1.698;2023-02-03T07:38:08;13.30;99.90
16863;DHT22;52193;48.216;-1.698;2023-02-03T07:40:35;13.30;99.90
16863;DHT22;52193;48.216;-1.698;2023-02-03T07:43:03;13.30;99.90
16863;DHT22;52193;48.216;-1.698;2023-02-03T07:45:30;13.30;99.90
16863;DHT22;52193;48.216;-1.698;2023-02-03T07:47:57;13.40;99.90
16863;DHT22;52193;48.216;-1.698;2023-02-03T07:50:24;13.30;99.90
16863;DHT22;52193;48.216;-1.698;2023-02-03T07:52:51;13.40;99.90
16863;DHT22;52193;48.216;-1.698;2023-02-03T07:55:17;13.50;99.90
16863;DHT22;52193;48.216;-1.698;2023-02-03T07:57:44;13.50;99.90
16863;DHT22;52193;48.216;-1.698;2023-02-03T08:00:14;13.50;99.90
16863;DHT22;52193;48.216;-1.698;2023-02-03T08:02:42;13.50;99.90
16863;DHT22;52193;48.216;-1.698;2023-02-03T08:05:10;13.60;99.90
16863;DHT22;52193;48.216;-1.698;2023-02-03T08:07:37;13.50;99.90
16863;DHT22;52193;48.216;-1.698;2023-02-03T08:10:04;13.50;99.90
16863;DHT22;52193;48.216;-1.698;2023-02-03T08:12:31;13.50;99.90
16863;DHT22;52193;48.216;-1.698;2023-02-03T08:14:58;13.50;99.90
16863;DHT22;52193;48.216;-1.698;2023-02-03T08:17:26;13.50;99.90
16863;DHT22;52193;48.216;-1.698;2023-02-03T08:19:53;13.60;99.90
16863;DHT22;52193;48.216;-1.698;2023-02-03T08:22:20;13.60;99.90
16863;DHT22;52193;48.216;-1.698;2023-02-03T08:24:47;13.60;99.90
16863;DHT22;52193;48.216;-1.698;2023-02-03T08:27:16;13.50;99.90
16863;DHT22;52193;48.216;-1.698;2023-02-03T08:29:43;13.60;99.90
16863;DHT22;52193;48.216;-1.698;2023-02-03T08:32:13;13.50;99.90
16863;DHT22;52193;48.216;-1.698;2023-02-03T08:34:41;13.60;99.90
16863;DHT22;52193;48.216;-1.698;2023-02-03T08:37:09;13.50;99.90
16863;DHT22;52193;48.216;-1.698;2023-02-03T08:39:37;13.40;99.90
16863;DHT22;52193;48.216;-1.698;2023-02-03T08:42:05;13.40;99.90
16863;DHT22;52193;48.216;-1.698;2023-02-03T08:44:33;13.40;99.90
16863;DHT22;52193;48.216;-1.698;2023-02-03T08:47:00;13.40;99.90
16863;DHT22;52193;48.216;-1.698;2023-02-03T08:49:28;13.40;99.90
16863;DHT22;52193;48.216;-1.698;2023-02-03T08:51:57;13.40;99.90
16863;DHT22;52193;48.216;-1.698;2023-02-03T08:54:24;13.40;99.90
16863;DHT22;52193;48.216;-1.698;2023-02-03T08:56:51;13.50;99.90
16863;DHT22;52193;48.216;-1.698;2023-02-03T08:59:18;13.50;99.90
16863;DHT22;52193;48.216;-1.698;2023-02-03T09:01:45;13.50;99.90
16863;DHT22;52193;48.216;-1.698;2023-02-03T09:04:14;13.40;99.90
16863;DHT22;52193;48.216;-1.698;2023-02-03T09:06:43;13.40;99.90
16863;DHT22;52193;48.216;-1.698;2023-02-03T09:09:14;13.40;99.90
16863;DHT22;52193;48.216;-1.698;2023-02-03T09:11:41;13.40;99.90
16863;DHT22;52193;48.216;-1.698;2023-02-03T09:14:08;13.50;99.90
16863;DHT22;52193;48.216;-1.698;2023-02-03T09:16:35;13.50;99.90
16863;DHT22;52193;48.216;-1.698;2023-02-03T09:19:02;13.60;99.90
16863;DHT22;52193;48.216;-1.698;2023-02-03T09:21:29;13.60;99.90
16863;DHT22;52193;48.216;-1.698;2023-02-03T09:23:59;13.60;99.90
16863;DHT22;52193;48.216;-1.698;2023-02-03T09:26:28;13.60;99.90
16863;DHT22;52193;48.216;-1.698;2023-02-03T09:28:55;13.60;99.90
16863;DHT22;52193;48.216;-1.698;2023-02-03T09:31:22;13.70;99.90
16863;DHT22;52193;48.216;-1.698;2023-02-03T09:33:49;13.70;99.90
16863;DHT22;52193;48.216;-1.698;2023-02-03T09:36:15;13.70;99.90
16863;DHT22;52193;48.216;-1.698;2023-02-03T09:38:42;13.80;99.90
16863;DHT22;52193;48.216;-1.698;2023-02-03T09:41:18;13.90;99.90
16863;DHT22;52193;48.216;-1.698;2023-02-03T09:43:52;14.00;99.90
16863;DHT22;52193;48.216;-1.698;2023-02-03T09:46:24;13.90;99.90
16863;DHT22;52193;48.216;-1.698;2023-02-03T09:48:53;14.00;99.90
16863;DHT22;52193;48.216;-1.698;2023-02-03T09:51:23;13.90;99.90
16863;DHT22;52193;48.216;-1.698;2023-02-03T09:53:56;14.00;99.90
16863;DHT22;52193;48.216;-1.698;2023-02-03T09:56:27;14.10;99.90
16863;DHT22;52193;48.216;-1.698;2023-02-03T09:58:57;14.10;99.90
16863;DHT22;52193;48.216;-1.698;2023-02-03T10:01:29;14.00;99.90
16863;DHT22;52193;48.216;-1.698;2023-02-03T10:04:04;14.20;99.90
16863;DHT22;52193;48.216;-1.698;2023-02-03T10:06:42;14.20;99.90
16863;DHT22;52193;48.216;-1.698;2023-02-03T10:09:28;14.30;99.90
16863;DHT22;52193;48.216;-1.698;2023-02-03T10:12:17;14.30;99.90
16863;DHT22;52193;48.216;-1.698;2023-02-03T10:14:59;14.40;99.90
16863;DHT22;52193;48.216;-1.698;2023-02-03T10:17:31;14.40;99.90
16863;DHT22;52193;48.216;-1.698;2023-02-03T10:20:04;14.40;99.90
16863;DHT22;52193;48.216;-1.698;2023-02-03T10:22:35;14.50;99.90
16863;DHT22;52193;48.216;-1.698;2023-02-03T10:25:06;14.50;99.90
16863;DHT22;52193;48.216;-1.698;2023-02-03T10:27:37;14.50;99.90
16863;DHT22;52193;48.216;-1.698;2023-02-03T10:30:16;14.50;99.90
16863;DHT22;52193;48.216;-1.698;2023-02-03T10:32:45;14.50;99.90
16863;DHT22;52193;48.216;-1.698;2023-02-03T10:35:13;14.50;99.90
16863;DHT22;52193;48.216;-1.698;2023-02-03T10:37:42;14.60;99.90
16863;DHT22;52193;48.216;-1.698;2023-02-03T10:40:12;14.60;99.90
16863;DHT22;52193;48.216;-1.698;2023-02-03T10:42:42;14.70;99.90
16863;DHT22;52193;48.216;-1.698;2023-02-03T10:45:30;14.70;99.90
16863;DHT22;52193;48.216;-1.698;2023-02-03T10:48:00;14.70;99.90
16863;DHT22;52193;48.216;-1.698;2023-02-03T10:50:28;14.80;99.90
16863;DHT22;52193;48.216;-1.698;2023-02-03T10:53:19;14.80;99.90
16863;DHT22;52193;48.216;-1.698;2023-02-03T10:55:49;14.90;99.90
16863;DHT22;52193;48.216;-1.698;2023-02-03T10:58:21;14.90;99.90
16863;DHT22;52193;48.216;-1.698;2023-02-03T11:00:54;14.90;99.90
16863;DHT22;52193;48.216;-1.698;2023-02-03T11:03:25;15.00;99.90
16863;DHT22;52193;48.216;-1.698;2023-02-03T11:06:08;15.00;99.90
16863;DHT22;52193;48.216;-1.698;2023-02-03T11:08:37;15.10;99.90
16863;DHT22;52193;48.216;-1.698;2023-02-03T11:11:06;15.20;99.90
16863;DHT22;52193;48.216;-1.698;2023-02-03T11:13:33;15.30;99.90
16863;DHT22;52193;48.216;-1.698;2023-02-03T11:16:04;15.20;99.90
16863;DHT22;52193;48.216;-1.698;2023-02-03T11:18:46;15.10;99.90
16863;DHT22;52193;48.216;-1.698;2023-02-03T11:21:15;15.00;99.90
16863;DHT22;52193;48.216;-1.698;2023-02-03T11:23:50;15.00;99.90
16863;DHT22;52193;48.216;-1.698;2023-02-03T11:26:20;15.10;99.90
16863;DHT22;52193;48.216;-1.698;2023-02-03T11:28:50;15.20;99.90
16863;DHT22;52193;48.216;-1.698;2023-02-03T11:31:21;15.30;99.90
16863;DHT22;52193;48.216;-1.698;2023-02-03T11:33:58;15.30;99.90
16863;DHT22;52193;48.216;-1.698;2023-02-03T11:36:27;15.30;99.90
16863;DHT22;52193;48.216;-1.698;2023-02-03T11:39:10;15.20;99.90
16863;DHT22;52193;48.216;-1.698;2023-02-03T11:41:41;15.20;99.90
16863;DHT22;52193;48.216;-1.698;2023-02-03T11:44:16;15.20;99.90
16863;DHT22;52193;48.216;-1.698;2023-02-03T11:46:45;15.20;99.90
16863;DHT22;52193;48.216;-1.698;2023-02-03T11:49:32;15.20;99.90
16863;DHT22;52193;48.216;-1.698;2023-02-03T11:52:09;15.40;99.90
16863;DHT22;52193;48.216;-1.698;2023-02-03T11:54:46;15.60;99.90
16863;DHT22;52193;48.216;-1.698;2023-02-03T11:57:27;15.60;99.90
16863;DHT22;52193;48.216;-1.698;2023-02-03T12:00:13;15.70;99.90
16863;DHT22;52193;48.216;-1.698;2023-02-03T12:06:04;15.90;99.90
16863;DHT22;52193;48.216;-1.698;2023-02-03T12:08:43;16.10;99.90
16863;DHT22;52193;48.216;-1.698;2023-02-03T12:11:19;16.20;99.90
16863;DHT22;52193;48.216;-1.698;2023-02-03T12:14:02;16.20;99.90
16863;DHT22;52193;48.216;-1.698;2023-02-03T12:19:33;16.10;99.90
16863;DHT22;52193;48.216;-1.698;2023-02-03T12:22:10;16.10;99.90
16863;DHT22;52193;48.216;-1.698;2023-02-03T12:24:47;16.10;99.90
16863;DHT22;52193;48.216;-1.698;2023-02-03T12:27:28;16.10;99.90
16863;DHT22;52193;48.216;-1.698;2023-02-03T12:30:02;16.10;99.90
16863;DHT22;52193;48.216;-1.698;2023-02-03T12:32:35;16.10;99.90
16863;DHT22;52193;48.216;-1.698;2023-02-03T12:35:12;16.20;99.90
16863;DHT22;52193;48.216;-1.698;2023-02-03T12:37:47;16.10;99.90
16863;DHT22;52193;48.216;-1.698;2023-02-03T12:40:18;16.10;99.90
16863;DHT22;52193;48.216;-1.698;2023-02-03T12:42:52;16.10;99.90
16863;DHT22;52193;48.216;-1.698;2023-02-03T12:45:23;16.20;99.90
16863;DHT22;52193;48.216;-1.698;2023-02-03T12:47:54;16.10;99.90
16863;DHT22;52193;48.216;-1.698;2023-02-03T12:50:28;16.00;99.90
16863;DHT22;52193;48.216;-1.698;2023-02-03T12:53:00;16.00;99.90
16863;DHT22;52193;48.216;-1.698;2023-02-03T12:55:33;16.00;99.90
16863;DHT22;52193;48.216;-1.698;2023-02-03T12:58:04;16.00;99.90
16863;DHT22;52193;48.216;-1.698;2023-02-03T13:00:41;16.10;99.90
16863;DHT22;52193;48.216;-1.698;2023-02-03T13:03:16;16.20;99.90
16863;DHT22;52193;48.216;-1.698;2023-02-03T13:05:49;16.20;99.90
16863;DHT22;52193;48.216;-1.698;2023-02-03T13:08:29;16.20;99.90
16863;DHT22;52193;48.216;-1.698;2023-02-03T13:11:07;16.10;99.90
16863;DHT22;52193;48.216;-1.698;2023-02-03T13:13:41;16.10;99.90
16863;DHT22;52193;48.216;-1.698;2023-02-03T13:16:10;16.00;99.90
16863;DHT22;52193;48.216;-1.698;2023-02-03T13:18:41;16.10;99.90
16863;DHT22;52193;48.216;-1.698;2023-02-03T13:21:10;16.10;99.90
16863;DHT22;52193;48.216;-1.698;2023-02-03T13:23:41;16.10;99.90
16863;DHT22;52193;48.216;-1.698;2023-02-03T13:26:21;16.00;99.90
16863;DHT22;52193;48.216;-1.698;2023-02-03T13:29:03;16.20;99.90
16863;DHT22;52193;48.216;-1.698;2023-02-03T13:31:42;16.30;99.90
16863;DHT22;52193;48.216;-1.698;2023-02-03T13:34:42;16.30;99.90
16863;DHT22;52193;48.216;-1.698;2023-02-03T13:37:40;16.20;99.90
16863;DHT22;52193;48.216;-1.698;2023-02-03T13:40:24;16.00;99.90
16863;DHT22;52193;48.216;-1.698;2023-02-03T13:42:57;16.00;99.90
16863;DHT22;52193;48.216;-1.698;2023-02-03T13:45:29;16.00;99.90
16863;DHT22;52193;48.216;-1.698;2023-02-03T13:48:08;16.00;99.90
16863;DHT22;52193;48.216;-1.698;2023-02-03T13:50:37;16.00;99.90
16863;DHT22;52193;48.216;-1.698;2023-02-03T13:53:07;16.10;99.90
16863;DHT22;52193;48.216;-1.698;2023-02-03T13:55:42;16.20;99.90
16863;DHT22;52193;48.216;-1.698;2023-02-03T13:58:19;16.20;99.90
16863;DHT22;52193;48.216;-1.698;2023-02-03T14:01:03;16.20;99.90
16863;DHT22;52193;48.216;-1.698;2023-02-03T14:03:45;16.20;99.90
16863;DHT22;52193;48.216;-1.698;2023-02-03T14:09:20;16.10;99.90
16863;DHT22;52193;48.216;-1.698;2023-02-03T14:11:50;16.10;99.90
16863;DHT22;52193;48.216;-1.698;2023-02-03T14:14:39;16.10;99.90
16863;DHT22;52193;48.216;-1.698;2023-02-03T14:20:36;15.90;99.90
16863;DHT22;52193;48.216;-1.698;2023-02-03T14:23:09;16.00;99.90
16863;DHT22;52193;48.216;-1.698;2023-02-03T14:25:40;16.00;99.90
16863;DHT22;52193;48.216;-1.698;2023-02-03T14:28:12;15.90;99.90
16863;DHT22;52193;48.216;-1.698;2023-02-03T14:31:02;15.90;99.90
16863;DHT22;52193;48.216;-1.698;2023-02-03T14:36:33;16.00;99.90
16863;DHT22;52193;48.216;-1.698;2023-02-03T14:39:02;15.90;99.90
16863;DHT22;52193;48.216;-1.698;2023-02-03T14:41:42;16.00;99.90
16863;DHT22;52193;48.216;-1.698;2023-02-03T14:44:22;15.90;99.90
16863;DHT22;52193;48.216;-1.698;2023-02-03T14:47:13;16.00;99.90
16863;DHT22;52193;48.216;-1.698;2023-02-03T14:49:52;16.00;99.90
16863;DHT22;52193;48.216;-1.698;2023-02-03T14:52:43;16.00;99.90
16863;DHT22;52193;48.216;-1.698;2023-02-03T14:55:32;15.90;99.90
16863;DHT22;52193;48.216;-1.698;2023-02-03T14:58:03;15.90;99.90
16863;DHT22;52193;48.216;-1.698;2023-02-03T15:00:33;16.00;99.90
16863;DHT22;52193;48.216;-1.698;2023-02-03T15:03:17;16.10;99.90
16863;DHT22;52193;48.216;-1.698;2023-02-03T15:05:48;16.10;99.90
16863;DHT22;52193;48.216;-1.698;2023-02-03T15:08:38;16.10;99.90
16863;DHT22;52193;48.216;-1.698;2023-02-03T15:11:29;16.20;99.90
16863;DHT22;52193;48.216;-1.698;2023-02-03T15:14:18;16.20;99.90
16863;DHT22;52193;48.216;-1.698;2023-02-03T15:16:45;16.20;99.90
16863;DHT22;52193;48.216;-1.698;2023-02-03T15:19:16;16.20;99.90
16863;DHT22;52193;48.216;-1.698;2023-02-03T15:21:44;16.20;99.90
16863;DHT22;52193;48.216;-1.698;2023-02-03T15:24:13;16.20;99.90
16863;DHT22;52193;48.216;-1.698;2023-02-03T15:26:45;16.20;99.90
16863;DHT22;52193;48.216;-1.698;2023-02-03T15:29:20;16.20;99.90
16863;DHT22;52193;48.216;-1.698;2023-02-03T15:31:51;16.20;99.90
16863;DHT22;52193;48.216;-1.698;2023-02-03T15:34:25;16.20;99.90
16863;DHT22;52193;48.216;-1.698;2023-02-03T15:36:55;16.20;99.90
16863;DHT22;52193;48.216;-1.698;2023-02-03T15:39:32;16.20;99.90
16863;DHT22;52193;48.216;-1.698;2023-02-03T15:42:04;16.20;99.90
16863;DHT22;52193;48.216;-1.698;2023-02-03T15:44:37;16.20;99.90
16863;DHT22;52193;48.216;-1.698;2023-02-03T15:47:19;16.20;99.90
16863;DHT22;52193;48.216;-1.698;2023-02-03T15:49:52;16.20;99.90
16863;DHT22;52193;48.216;-1.698;2023-02-03T15:52:21;16.10;99.90
16863;DHT22;52193;48.216;-1.698;2023-02-03T15:54:54;16.10;99.90
16863;DHT22;52193;48.216;-1.698;2023-02-03T15:57:25;16.10;99.90